Time,TemperatureF,DewpointF,PressureIn,WindDirection,WindDirectionDegrees,WindSpeedMPH,WindSpeedGustMPH,Humidity,HourlyPrecipIn,Conditions,Clouds,dailyrainin,SolarRadiationWatts/m^2,SoftwareType,DateUTC
2013-01-17 00:03:00,1.8,-6.0,30.37,NNE,20,0.0,8.0,69,0.00,,,0.03,0.0,meteohub,2013-01-17 06:03:00,
2013-01-17 00:08:00,1.6,-6.2,30.37,NNW,333,0.0,8.0,69,0.00,,,0.00,0.0,meteohub,2013-01-17 06:08:00,
2013-01-17 00:13:00,1.6,-6.2,30.38,NW,317,0.0,8.0,69,0.00,,,0.00,0.0,meteohub,2013-01-17 06:13:00,
2013-01-17 00:18:00,1.2,-6.9,30.38,NW,311,0.0,3.0,68,0.00,,,0.00,0.0,meteohub,2013-01-17 06:18:00,
2013-01-17 00:23:00,1.2,-7.2,30.38,NNW,333,1.0,4.0,67,0.00,,,0.00,0.0,meteohub,2013-01-17 06:23:00,
2013-01-17 00:28:00,1.0,-7.6,30.38,NW,316,0.0,4.0,66,0.00,,,0.00,0.0,meteohub,2013-01-17 06:28:00,
2013-01-17 00:33:00,0.9,-8.1,30.40,NW,307,1.0,5.0,65,0.00,,,0.00,0.0,meteohub,2013-01-17 06:33:00,
2013-01-17 00:38:00,0.9,-8.1,30.40,NNW,344,1.0,5.0,65,0.00,,,0.00,0.0,meteohub,2013-01-17 06:38:00,
2013-01-17 00:43:00,0.7,-8.3,30.40,WNW,303,0.0,5.0,65,0.00,,,0.00,0.0,meteohub,2013-01-17 06:43:00,
2013-01-17 00:48:00,0.5,-8.5,30.41,North,5,0.0,3.0,65,0.00,,,0.00,0.0,meteohub,2013-01-17 06:48:00,
2013-01-17 00:53:00,0.5,-8.5,30.41,WNW,296,2.0,3.0,65,0.00,,,0.00,0.0,meteohub,2013-01-17 06:53:00,
2013-01-17 00:59:00,0.3,-9.0,30.42,West,275,1.0,3.0,64,0.00,,,0.00,0.0,meteohub,2013-01-17 06:59:00,
2013-01-17 01:04:00,0.3,-8.7,30.42,WSW,258,2.0,4.0,65,0.00,,,0.00,0.0,meteohub,2013-01-17 07:04:00,
2013-01-17 01:09:00,0.1,-8.5,30.42,WSW,258,1.0,4.0,66,0.00,,,0.00,0.0,meteohub,2013-01-17 07:09:00,
2013-01-17 01:14:00,0.1,-8.5,30.42,WSW,244,0.0,4.0,66,0.00,,,0.00,0.0,meteohub,2013-01-17 07:14:00,
2013-01-17 01:19:00,0.0,-8.7,30.42,WSW,244,2.0,3.0,66,0.00,,,0.00,0.0,meteohub,2013-01-17 07:19:00,
2013-01-17 01:24:00,0.0,-8.3,30.43,WSW,245,1.0,2.0,67,0.00,,,0.00,0.0,meteohub,2013-01-17 07:24:00,
2013-01-17 01:29:00,-0.2,-8.5,30.43,WSW,257,2.0,2.0,67,0.00,,,0.00,0.0,meteohub,2013-01-17 07:29:00,
2013-01-17 01:34:00,-0.2,-8.3,30.44,WSW,257,2.0,3.0,68,0.00,,,0.00,0.0,meteohub,2013-01-17 07:34:00,
2013-01-17 01:39:00,-0.4,-8.5,30.44,WSW,258,1.0,3.0,68,0.00,,,0.00,0.0,meteohub,2013-01-17 07:39:00,
2013-01-17 01:44:00,-0.6,-8.7,30.43,West,268,3.0,4.0,68,0.00,,,0.00,0.0,meteohub,2013-01-17 07:44:00,
2013-01-17 01:49:00,-0.6,-8.7,30.43,West,266,1.0,4.0,68,0.00,,,0.00,0.0,meteohub,2013-01-17 07:49:00,
2013-01-17 01:54:00,-0.6,-8.7,30.43,West,266,0.0,4.0,68,0.00,,,0.00,0.0,meteohub,2013-01-17 07:54:00,
2013-01-17 01:59:00,-0.6,-8.3,30.44,West,266,1.0,4.0,69,0.00,,,0.00,0.0,meteohub,2013-01-17 07:59:00,
2013-01-17 02:04:00,-0.6,-8.3,30.44,West,266,0.0,3.0,69,0.00,,,0.00,0.0,meteohub,2013-01-17 08:04:00,
2013-01-17 02:09:00,-0.8,-8.1,30.44,West,266,0.0,2.0,70,0.00,,,0.00,0.0,meteohub,2013-01-17 08:09:00,
2013-01-17 02:14:00,-0.8,-8.1,30.43,West,266,0.0,2.0,70,0.00,,,0.00,0.0,meteohub,2013-01-17 08:14:00,
2013-01-17 02:19:00,-0.8,-8.0,30.43,West,266,0.0,2.0,71,0.00,,,0.00,0.0,meteohub,2013-01-17 08:19:00,
2013-01-17 02:24:00,-0.8,-8.0,30.44,West,266,0.0,2.0,71,0.00,,,0.00,0.0,meteohub,2013-01-17 08:24:00,
2013-01-17 02:29:00,-0.8,-7.6,30.44,West,266,0.0,2.0,72,0.00,,,0.00,0.0,meteohub,2013-01-17 08:29:00,
2013-01-17 02:34:00,-0.9,-7.8,30.45,West,266,0.0,2.0,72,0.00,,,0.00,0.0,meteohub,2013-01-17 08:34:00,
2013-01-17 02:39:00,-0.9,-7.4,30.45,West,266,0.0,1.0,73,0.00,,,0.00,0.0,meteohub,2013-01-17 08:39:00,
2013-01-17 02:44:00,-0.9,-7.4,30.45,West,266,0.0,1.0,73,0.00,,,0.00,0.0,meteohub,2013-01-17 08:44:00,
2013-01-17 02:49:00,-0.9,-7.2,30.45,West,266,0.0,1.0,74,0.00,,,0.00,0.0,meteohub,2013-01-17 08:49:00,
2013-01-17 02:54:00,-0.9,-7.2,30.45,West,266,0.0,1.0,74,0.00,,,0.00,0.0,meteohub,2013-01-17 08:54:00,
2013-01-17 02:59:00,-0.9,-7.2,30.46,West,266,1.0,1.0,74,0.00,,,0.00,0.0,meteohub,2013-01-17 08:59:00,
2013-01-17 03:04:00,-0.9,-6.9,30.47,West,266,0.0,1.0,75,0.00,,,0.00,0.0,meteohub,2013-01-17 09:04:00,
2013-01-17 03:09:00,-0.9,-6.9,30.46,West,266,0.0,2.0,75,0.00,,,0.00,0.0,meteohub,2013-01-17 09:09:00,
2013-01-17 03:14:00,-0.8,-6.7,30.46,NNW,331,0.0,2.0,75,0.00,,,0.00,0.0,meteohub,2013-01-17 09:14:00,
2013-01-17 03:19:00,-0.8,-6.7,30.47,WSW,251,0.0,2.0,75,0.00,,,0.00,0.0,meteohub,2013-01-17 09:19:00,
2013-01-17 03:24:00,-0.6,-6.3,30.48,WSW,253,1.0,2.0,76,0.00,,,0.00,0.0,meteohub,2013-01-17 09:24:00,
2013-01-17 03:29:00,-0.2,-6.0,30.48,West,281,0.0,3.0,76,0.00,,,0.00,0.0,meteohub,2013-01-17 09:29:00,
2013-01-17 03:34:00,0.0,-5.8,30.47,NW,305,0.0,3.0,76,0.00,,,0.00,0.0,meteohub,2013-01-17 09:34:00,
2013-01-17 03:39:00,0.1,-6.0,30.47,NW,305,0.0,3.0,75,0.00,,,0.00,0.0,meteohub,2013-01-17 09:39:00,
2013-01-17 03:44:00,0.3,-5.8,30.47,West,271,1.0,3.0,75,0.00,,,0.00,0.0,meteohub,2013-01-17 09:44:00,
2013-01-17 03:49:00,0.7,-5.6,30.46,West,263,1.0,3.0,74,0.00,,,0.00,0.0,meteohub,2013-01-17 09:49:00,
2013-01-17 03:54:00,0.9,-5.8,30.46,West,263,0.0,3.0,73,0.00,,,0.00,0.0,meteohub,2013-01-17 09:54:00,
2013-01-17 03:59:00,1.0,-5.6,30.45,West,263,0.0,3.0,73,0.00,,,0.00,0.0,meteohub,2013-01-17 09:59:00,
2013-01-17 04:04:00,1.0,-5.6,30.45,West,263,0.0,3.0,73,0.00,,,0.00,0.0,meteohub,2013-01-17 10:04:00,
2013-01-17 04:09:00,1.2,-5.4,30.45,West,263,0.0,2.0,73,0.00,,,0.00,0.0,meteohub,2013-01-17 10:09:00,
2013-01-17 04:14:00,1.6,-5.3,30.44,West,263,0.0,2.0,72,0.00,,,0.00,0.0,meteohub,2013-01-17 10:14:00,
2013-01-17 04:19:00,1.8,-4.9,30.44,West,263,0.0,3.0,73,0.00,,,0.00,0.0,meteohub,2013-01-17 10:19:00,
2013-01-17 04:24:00,1.8,-5.3,30.45,West,263,2.0,3.0,72,0.00,,,0.00,0.0,meteohub,2013-01-17 10:24:00,
2013-01-17 04:29:00,1.9,-4.7,30.46,West,263,0.0,2.0,73,0.00,,,0.00,0.0,meteohub,2013-01-17 10:29:00,
2013-01-17 04:34:00,2.1,-4.5,30.46,West,263,1.0,2.0,73,0.00,,,0.00,0.0,meteohub,2013-01-17 10:34:00,
2013-01-17 04:39:00,2.3,-4.7,30.46,West,263,1.0,2.0,72,0.00,,,0.00,0.0,meteohub,2013-01-17 10:39:00,
2013-01-17 04:44:00,2.5,-4.5,30.46,West,263,1.0,2.0,72,0.00,,,0.00,0.0,meteohub,2013-01-17 10:44:00,
2013-01-17 04:49:00,2.7,-4.4,30.46,West,274,0.0,2.0,72,0.00,,,0.00,0.0,meteohub,2013-01-17 10:49:00,
2013-01-17 04:54:00,2.7,-4.4,30.47,West,274,0.0,3.0,72,0.00,,,0.00,0.0,meteohub,2013-01-17 10:54:00,
2013-01-17 04:59:00,2.8,-4.4,30.46,West,274,0.0,3.0,71,0.00,,,0.00,0.0,meteohub,2013-01-17 10:59:00,
2013-01-17 05:04:00,3.0,-4.0,30.46,West,274,1.0,3.0,72,0.00,,,0.00,0.0,meteohub,2013-01-17 11:04:00,
2013-01-17 05:10:00,3.0,-4.0,30.46,West,274,1.0,3.0,72,0.00,,,0.00,0.0,meteohub,2013-01-17 11:10:00,
2013-01-17 05:15:00,3.2,-3.8,30.46,West,274,1.0,3.0,72,0.00,,,0.00,0.0,meteohub,2013-01-17 11:15:00,
2013-01-17 05:20:00,3.4,-3.3,30.46,WSW,245,0.0,2.0,73,0.00,,,0.00,0.0,meteohub,2013-01-17 11:20:00,
2013-01-17 05:25:00,3.6,-3.5,30.46,WSW,245,1.0,3.0,72,0.00,,,0.00,0.0,meteohub,2013-01-17 11:25:00,
2013-01-17 05:30:00,3.7,-3.3,30.46,WSW,245,0.0,3.0,72,0.00,,,0.00,0.0,meteohub,2013-01-17 11:30:00,
2013-01-17 05:35:00,3.7,-3.3,30.45,WSW,245,0.0,3.0,72,0.00,,,0.00,0.0,meteohub,2013-01-17 11:35:00,
2013-01-17 05:40:00,3.9,-3.1,30.46,West,263,3.0,3.0,72,0.00,,,0.00,0.0,meteohub,2013-01-17 11:40:00,
2013-01-17 05:45:00,4.1,-2.9,30.46,West,263,1.0,2.0,72,0.00,,,0.00,0.0,meteohub,2013-01-17 11:45:00,
2013-01-17 05:50:00,4.3,-2.7,30.46,West,263,1.0,3.0,72,0.00,,,0.00,0.0,meteohub,2013-01-17 11:50:00,
2013-01-17 05:55:00,4.5,-2.2,30.45,SSW,195,2.0,3.0,73,0.00,,,0.00,0.0,meteohub,2013-01-17 11:55:00,
2013-01-17 06:00:00,4.6,-2.0,30.46,WSW,254,0.0,3.0,73,0.00,,,0.00,0.0,meteohub,2013-01-17 12:00:00,
2013-01-17 06:05:00,4.6,-2.0,30.46,West,271,2.0,4.0,73,0.00,,,0.00,0.0,meteohub,2013-01-17 12:05:00,
2013-01-17 06:10:00,4.8,-2.2,30.45,West,271,0.0,4.0,72,0.00,,,0.00,0.0,meteohub,2013-01-17 12:10:00,
2013-01-17 06:15:00,5.0,-2.0,30.45,West,271,0.0,4.0,72,0.00,,,0.00,0.0,meteohub,2013-01-17 12:15:00,
2013-01-17 06:20:00,5.2,-1.8,30.46,West,271,0.0,2.0,72,0.00,,,0.00,0.0,meteohub,2013-01-17 12:20:00,
2013-01-17 06:25:00,5.4,-1.7,30.45,West,271,1.0,2.0,72,0.00,,,0.00,0.0,meteohub,2013-01-17 12:25:00,
2013-01-17 06:30:00,5.4,-1.7,30.45,West,271,0.0,2.0,72,0.00,,,0.00,0.0,meteohub,2013-01-17 12:30:00,
2013-01-17 06:35:00,5.5,-1.3,30.45,West,271,0.0,2.0,73,0.00,,,0.00,0.0,meteohub,2013-01-17 12:35:00,
2013-01-17 06:40:00,5.7,-1.3,30.45,West,271,0.0,2.0,72,0.00,,,0.00,0.0,meteohub,2013-01-17 12:40:00,
2013-01-17 06:45:00,5.9,-1.1,30.45,West,271,0.0,2.0,72,0.00,,,0.00,0.0,meteohub,2013-01-17 12:45:00,
2013-01-17 06:50:00,6.1,-0.9,30.44,West,271,0.0,2.0,72,0.00,,,0.00,0.0,meteohub,2013-01-17 12:50:00,
2013-01-17 06:55:00,6.3,-0.8,30.44,SW,215,1.0,2.0,72,0.00,,,0.00,0.0,meteohub,2013-01-17 12:55:00,
2013-01-17 07:00:00,6.4,-0.4,30.44,SW,215,0.0,2.0,73,0.00,,,0.00,0.0,meteohub,2013-01-17 13:00:00,
2013-01-17 07:05:00,6.4,0.0,30.44,West,264,1.0,2.0,74,0.00,,,0.00,0.0,meteohub,2013-01-17 13:05:00,
2013-01-17 07:10:00,6.6,0.1,30.44,WSW,252,0.0,2.0,74,0.00,,,0.00,0.0,meteohub,2013-01-17 13:10:00,
2013-01-17 07:15:00,6.6,0.1,30.44,WSW,252,0.0,2.0,74,0.00,,,0.00,0.0,meteohub,2013-01-17 13:15:00,
2013-01-17 07:20:00,7.0,0.5,30.44,WSW,252,0.0,2.0,74,0.00,,,0.00,0.0,meteohub,2013-01-17 13:20:00,
2013-01-17 07:25:00,7.0,0.7,30.43,WSW,252,0.0,2.0,75,0.00,,,0.00,0.0,meteohub,2013-01-17 13:25:00,
2013-01-17 07:30:00,7.2,0.7,30.44,West,271,0.0,2.0,74,0.00,,,0.00,0.0,meteohub,2013-01-17 13:30:00,
2013-01-17 07:35:00,7.2,0.7,30.44,West,271,0.0,2.0,74,0.00,,,0.00,0.0,meteohub,2013-01-17 13:35:00,
2013-01-17 07:40:00,7.3,1.0,30.45,West,271,1.0,2.0,75,0.00,,,0.00,0.0,meteohub,2013-01-17 13:40:00,
2013-01-17 07:45:00,7.3,1.0,30.44,West,271,1.0,2.0,75,0.00,,,0.00,0.0,meteohub,2013-01-17 13:45:00,
2013-01-17 07:50:00,7.5,1.2,30.44,West,271,0.0,2.0,75,0.00,,,0.00,0.0,meteohub,2013-01-17 13:50:00,
2013-01-17 07:55:00,7.7,1.4,30.44,West,271,0.0,2.0,75,0.00,,,0.00,0.0,meteohub,2013-01-17 13:55:00,
2013-01-17 08:00:00,7.7,1.4,30.44,West,267,0.0,2.0,75,0.00,,,0.00,5.0,meteohub,2013-01-17 14:00:00,
2013-01-17 08:05:00,7.9,1.6,30.43,West,267,0.0,2.0,75,0.00,,,0.00,7.0,meteohub,2013-01-17 14:05:00,
2013-01-17 08:10:00,8.1,1.8,30.44,West,267,0.0,2.0,75,0.00,,,0.00,9.0,meteohub,2013-01-17 14:10:00,
2013-01-17 08:15:00,8.1,1.8,30.44,West,267,0.0,1.0,75,0.00,,,0.00,12.0,meteohub,2013-01-17 14:15:00,
2013-01-17 08:20:00,8.2,1.9,30.44,West,267,0.0,1.0,75,0.00,,,0.00,16.0,meteohub,2013-01-17 14:20:00,
2013-01-17 08:25:00,8.4,2.1,30.44,SSE,159,0.0,2.0,75,0.00,,,0.00,19.0,meteohub,2013-01-17 14:25:00,
2013-01-17 08:30:00,8.4,2.1,30.44,SSE,159,0.0,2.0,75,0.00,,,0.00,25.0,meteohub,2013-01-17 14:30:00,
2013-01-17 08:36:00,8.8,2.5,30.45,SSE,159,0.0,2.0,75,0.00,,,0.00,30.0,meteohub,2013-01-17 14:36:00,
2013-01-17 08:41:00,9.0,2.7,30.45,South,188,1.0,1.0,75,0.00,,,0.00,37.0,meteohub,2013-01-17 14:41:00,
2013-01-17 08:46:00,9.1,2.8,30.46,SW,232,0.0,1.0,75,0.00,,,0.00,37.0,meteohub,2013-01-17 14:46:00,
2013-01-17 08:51:00,9.3,3.0,30.46,West,268,0.0,2.0,75,0.00,,,0.00,35.0,meteohub,2013-01-17 14:51:00,
2013-01-17 08:56:00,9.7,3.0,30.47,West,267,0.0,2.0,74,0.00,,,0.00,32.0,meteohub,2013-01-17 14:56:00,
2013-01-17 09:01:00,9.7,3.0,30.47,South,169,0.0,2.0,74,0.00,,,0.00,39.0,meteohub,2013-01-17 15:01:00,
2013-01-17 09:06:00,9.9,3.2,30.47,South,169,0.0,2.0,74,0.00,,,0.00,60.0,meteohub,2013-01-17 15:06:00,
2013-01-17 09:11:00,10.0,3.4,30.47,South,169,0.0,2.0,74,0.00,,,0.00,58.0,meteohub,2013-01-17 15:11:00,
2013-01-17 09:16:00,10.4,3.7,30.47,South,169,0.0,2.0,74,0.00,,,0.00,62.0,meteohub,2013-01-17 15:16:00,
2013-01-17 09:21:00,10.6,3.6,30.47,South,169,0.0,1.0,73,0.00,,,0.00,32.0,meteohub,2013-01-17 15:21:00,
2013-01-17 09:26:00,10.6,3.9,30.48,South,169,0.0,1.0,74,0.00,,,0.00,39.0,meteohub,2013-01-17 15:26:00,
2013-01-17 09:31:00,10.8,3.7,30.48,South,169,0.0,2.0,73,0.00,,,0.00,30.0,meteohub,2013-01-17 15:31:00,
2013-01-17 09:36:00,10.8,3.7,30.48,WSW,256,1.0,2.0,73,0.00,,,0.00,33.0,meteohub,2013-01-17 15:36:00,
2013-01-17 09:41:00,10.8,4.1,30.49,WSW,256,0.0,2.0,74,0.00,,,0.00,39.0,meteohub,2013-01-17 15:41:00,
2013-01-17 09:46:00,10.9,4.3,30.49,WSW,254,0.0,2.0,74,0.00,,,0.00,47.0,meteohub,2013-01-17 15:46:00,
2013-01-17 09:51:00,11.7,5.0,30.49,WSW,254,0.0,3.0,74,0.00,,,0.00,84.0,meteohub,2013-01-17 15:51:00,
2013-01-17 09:56:00,12.4,5.4,30.49,West,280,1.0,3.0,73,0.00,,,0.00,125.0,meteohub,2013-01-17 15:56:00,
2013-01-17 10:01:00,12.9,5.5,30.49,West,271,1.0,3.0,72,0.00,,,0.00,120.0,meteohub,2013-01-17 16:01:00,
2013-01-17 10:06:00,13.5,5.5,30.50,SW,215,1.0,3.0,70,0.00,,,0.00,120.0,meteohub,2013-01-17 16:06:00,
2013-01-17 10:11:00,13.8,6.1,30.50,West,263,0.0,3.0,71,0.00,,,0.00,113.0,meteohub,2013-01-17 16:11:00,
2013-01-17 10:16:00,13.8,5.9,30.50,West,261,2.0,4.0,70,0.00,,,0.00,118.0,meteohub,2013-01-17 16:16:00,
2013-01-17 10:21:00,14.2,6.4,30.51,West,261,1.0,4.0,71,0.00,,,0.00,125.0,meteohub,2013-01-17 16:21:00,
2013-01-17 10:26:00,14.5,6.8,30.51,West,261,1.0,3.0,71,0.00,,,0.00,127.0,meteohub,2013-01-17 16:26:00,
2013-01-17 10:31:00,14.7,7.0,30.51,West,270,0.0,3.0,71,0.00,,,0.00,130.0,meteohub,2013-01-17 16:31:00,
2013-01-17 10:36:00,15.1,7.7,30.51,SW,236,1.0,3.0,72,0.00,,,0.00,137.0,meteohub,2013-01-17 16:36:00,
2013-01-17 10:41:00,15.1,7.7,30.51,WSW,257,2.0,3.0,72,0.00,,,0.00,141.0,meteohub,2013-01-17 16:41:00,
2013-01-17 10:46:00,15.3,7.9,30.51,West,276,1.0,5.0,72,0.00,,,0.00,142.0,meteohub,2013-01-17 16:46:00,
2013-01-17 10:51:00,15.4,8.4,30.50,West,272,0.0,5.0,73,0.00,,,0.00,123.0,meteohub,2013-01-17 16:51:00,
2013-01-17 10:56:00,15.6,8.6,30.50,SSE,160,0.0,5.0,73,0.00,,,0.00,86.0,meteohub,2013-01-17 16:56:00,
2013-01-17 11:01:00,15.8,9.0,30.50,WSW,249,1.0,3.0,74,0.00,,,0.00,58.0,meteohub,2013-01-17 17:01:00,
2013-01-17 11:06:00,16.3,9.5,30.51,SSW,204,2.0,3.0,74,0.00,,,0.00,70.0,meteohub,2013-01-17 17:06:00,
2013-01-17 11:11:00,16.9,10.0,30.51,West,265,1.0,3.0,74,0.00,,,0.00,149.0,meteohub,2013-01-17 17:11:00,
2013-01-17 11:16:00,17.6,10.8,30.50,WSW,244,2.0,3.0,74,0.00,,,0.00,132.0,meteohub,2013-01-17 17:16:00,
2013-01-17 11:21:00,18.0,11.1,30.50,WNW,294,1.0,3.0,74,0.00,,,0.00,171.0,meteohub,2013-01-17 17:21:00,
2013-01-17 11:26:00,18.1,11.3,30.50,West,264,3.0,4.0,74,0.00,,,0.00,225.0,meteohub,2013-01-17 17:26:00,
2013-01-17 11:31:00,18.7,12.0,30.51,West,261,2.0,4.0,75,0.00,,,0.00,204.0,meteohub,2013-01-17 17:31:00,
2013-01-17 11:36:00,19.2,12.4,30.51,WNW,290,2.0,4.0,74,0.00,,,0.00,176.0,meteohub,2013-01-17 17:36:00,
2013-01-17 11:41:00,19.6,12.9,30.51,West,261,2.0,4.0,75,0.00,,,0.00,105.0,meteohub,2013-01-17 17:41:00,
2013-01-17 11:46:00,19.8,13.1,30.51,West,276,3.0,6.0,75,0.00,,,0.00,179.0,meteohub,2013-01-17 17:46:00,
2013-01-17 11:51:00,19.8,12.7,30.51,West,271,2.0,6.0,74,0.00,,,0.00,250.0,meteohub,2013-01-17 17:51:00,
2013-01-17 11:56:00,19.8,13.1,30.50,West,262,2.0,6.0,75,0.00,,,0.00,302.0,meteohub,2013-01-17 17:56:00,
2013-01-17 12:01:00,19.8,13.1,30.50,SW,235,2.0,5.0,75,0.00,,,0.00,264.0,meteohub,2013-01-17 18:01:00,
2013-01-17 12:06:00,20.5,13.8,30.50,WSW,256,1.0,5.0,75,0.00,,,0.00,295.0,meteohub,2013-01-17 18:06:00,
2013-01-17 12:11:00,20.7,14.0,30.50,West,267,2.0,5.0,75,0.00,,,0.00,279.0,meteohub,2013-01-17 18:11:00,
2013-01-17 12:16:00,21.0,14.4,30.50,West,267,2.0,4.0,75,0.00,,,0.00,188.0,meteohub,2013-01-17 18:16:00,
2013-01-17 12:21:00,21.0,14.4,30.50,West,272,3.0,4.0,75,0.00,,,0.00,202.0,meteohub,2013-01-17 18:21:00,
2013-01-17 12:26:00,21.4,14.7,30.50,WNW,284,3.0,5.0,75,0.00,,,0.00,142.0,meteohub,2013-01-17 18:26:00,
2013-01-17 12:31:00,21.6,15.3,30.50,West,261,3.0,5.0,76,0.00,,,0.00,292.0,meteohub,2013-01-17 18:31:00,
2013-01-17 12:36:00,22.1,15.6,30.50,West,261,3.0,5.0,76,0.00,,,0.00,366.0,meteohub,2013-01-17 18:36:00,
2013-01-17 12:41:00,22.5,16.0,30.50,WSW,254,2.0,5.0,76,0.00,,,0.00,380.0,meteohub,2013-01-17 18:41:00,
2013-01-17 12:47:00,23.2,17.1,30.50,West,275,2.0,5.0,77,0.00,,,0.00,376.0,meteohub,2013-01-17 18:47:00,
2013-01-17 12:52:00,23.2,16.7,30.49,West,277,4.0,6.0,76,0.00,,,0.00,139.0,meteohub,2013-01-17 18:52:00,
2013-01-17 12:57:00,23.0,16.5,30.49,West,261,4.0,6.0,76,0.00,,,0.00,107.0,meteohub,2013-01-17 18:57:00,
2013-01-17 13:02:00,23.2,16.7,30.50,WSW,248,5.0,7.0,76,0.00,,,0.00,100.0,meteohub,2013-01-17 19:02:00,
2013-01-17 13:07:00,23.4,16.9,30.50,WSW,257,3.0,7.0,76,0.00,,,0.00,132.0,meteohub,2013-01-17 19:07:00,
2013-01-17 13:12:00,23.2,16.7,30.49,WSW,250,5.0,9.0,76,0.00,,,0.00,160.0,meteohub,2013-01-17 19:12:00,
2013-01-17 13:17:00,23.2,17.1,30.49,West,272,3.0,9.0,77,0.00,,,0.00,230.0,meteohub,2013-01-17 19:17:00,
2013-01-17 13:22:00,23.7,17.6,30.49,West,275,2.0,9.0,77,0.00,,,0.00,258.0,meteohub,2013-01-17 19:22:00,
2013-01-17 13:27:00,24.1,18.0,30.49,WNW,283,2.0,8.0,77,0.00,,,0.00,160.0,meteohub,2013-01-17 19:27:00,
2013-01-17 13:32:00,23.9,17.4,30.49,WSW,256,4.0,6.0,76,0.00,,,0.00,213.0,meteohub,2013-01-17 19:32:00,
2013-01-17 13:37:00,24.3,17.4,30.48,West,271,3.0,6.0,75,0.00,,,0.00,165.0,meteohub,2013-01-17 19:37:00,
2013-01-17 13:42:00,24.4,17.6,30.48,West,275,2.0,7.0,75,0.00,,,0.00,225.0,meteohub,2013-01-17 19:42:00,
2013-01-17 13:47:00,24.1,17.2,30.48,NW,304,4.0,8.0,75,0.00,,,0.00,181.0,meteohub,2013-01-17 19:47:00,
2013-01-17 13:52:00,24.1,17.6,30.48,North,9,4.0,8.0,76,0.00,,,0.00,272.0,meteohub,2013-01-17 19:52:00,
2013-01-17 13:57:00,24.1,17.6,30.48,NNW,332,1.0,8.0,76,0.00,,,0.00,207.0,meteohub,2013-01-17 19:57:00,
2013-01-17 14:02:00,23.9,17.4,30.48,West,268,4.0,7.0,76,0.00,,,0.00,258.0,meteohub,2013-01-17 20:02:00,
2013-01-17 14:07:00,23.7,17.2,30.48,NNW,336,1.0,6.0,76,0.00,,,0.00,229.0,meteohub,2013-01-17 20:07:00,
2013-01-17 14:12:00,23.5,17.1,30.48,NW,310,2.0,7.0,76,0.00,,,0.00,209.0,meteohub,2013-01-17 20:12:00,
2013-01-17 14:17:00,23.4,17.2,30.49,West,269,4.0,7.0,77,0.00,,,0.00,197.0,meteohub,2013-01-17 20:17:00,
2013-01-17 14:22:00,22.6,16.5,30.49,NNW,327,3.0,7.0,77,0.00,,,0.00,176.0,meteohub,2013-01-17 20:22:00,
2013-01-17 14:27:00,22.6,16.9,30.50,NW,312,3.0,8.0,78,0.00,,,0.00,158.0,meteohub,2013-01-17 20:27:00,
2013-01-17 14:32:00,22.3,16.5,30.50,North,0,4.0,8.0,78,0.00,,,0.00,155.0,meteohub,2013-01-17 20:32:00,
2013-01-17 14:37:00,21.9,16.2,30.50,WSW,246,1.0,8.0,78,0.00,,,0.00,148.0,meteohub,2013-01-17 20:37:00,
2013-01-17 14:42:00,21.7,15.6,30.49,NW,322,0.0,8.0,77,0.00,,,0.00,141.0,meteohub,2013-01-17 20:42:00,
2013-01-17 14:47:00,21.4,15.1,30.49,WNW,290,2.0,8.0,76,0.00,,,0.00,142.0,meteohub,2013-01-17 20:47:00,
2013-01-17 14:52:00,21.0,14.7,30.49,NW,307,4.0,7.0,76,0.00,,,0.00,144.0,meteohub,2013-01-17 20:52:00,
2013-01-17 14:57:00,20.8,14.7,30.49,NNW,348,3.0,7.0,77,0.00,,,0.00,144.0,meteohub,2013-01-17 20:57:00,
2013-01-17 15:02:00,20.7,14.0,30.48,NNW,348,0.0,9.0,75,0.00,,,0.00,125.0,meteohub,2013-01-17 21:02:00,
2013-01-17 15:07:00,20.5,13.5,30.48,NNE,26,3.0,9.0,74,0.00,,,0.00,120.0,meteohub,2013-01-17 21:07:00,
2013-01-17 15:12:00,20.3,13.6,30.49,North,0,1.0,7.0,75,0.00,,,0.00,114.0,meteohub,2013-01-17 21:12:00,
2013-01-17 15:17:00,19.9,12.9,30.50,North,350,1.0,5.0,74,0.00,,,0.00,104.0,meteohub,2013-01-17 21:17:00,
2013-01-17 15:22:00,19.6,12.6,30.50,West,273,5.0,6.0,74,0.00,,,0.00,102.0,meteohub,2013-01-17 21:22:00,
2013-01-17 15:27:00,19.2,12.6,30.49,WNW,296,0.0,7.0,75,0.00,,,0.00,91.0,meteohub,2013-01-17 21:27:00,
2013-01-17 15:32:00,19.0,12.4,30.49,WNW,291,1.0,7.0,75,0.00,,,0.00,86.0,meteohub,2013-01-17 21:32:00,
2013-01-17 15:37:00,19.0,12.4,30.49,NNW,339,2.0,7.0,75,0.00,,,0.00,86.0,meteohub,2013-01-17 21:37:00,
2013-01-17 15:42:00,18.9,11.3,30.49,WNW,284,2.0,4.0,72,0.00,,,0.00,77.0,meteohub,2013-01-17 21:42:00,
2013-01-17 15:47:00,18.5,10.8,30.49,North,11,1.0,8.0,71,0.00,,,0.00,76.0,meteohub,2013-01-17 21:47:00,
2013-01-17 15:52:00,18.5,11.3,30.49,NW,310,1.0,8.0,73,0.00,,,0.00,77.0,meteohub,2013-01-17 21:52:00,
2013-01-17 15:57:00,18.1,10.6,30.49,WNW,288,2.0,8.0,72,0.00,,,0.00,76.0,meteohub,2013-01-17 21:57:00,
2013-01-17 16:02:00,18.0,10.4,30.49,WNW,288,4.0,6.0,72,0.00,,,0.00,62.0,meteohub,2013-01-17 22:02:00,
2013-01-17 16:07:00,17.8,10.2,30.50,NNW,332,3.0,6.0,72,0.00,,,0.00,58.0,meteohub,2013-01-17 22:07:00,
2013-01-17 16:12:00,17.6,10.0,30.50,WNW,284,1.0,6.0,72,0.00,,,0.00,56.0,meteohub,2013-01-17 22:12:00,
2013-01-17 16:17:00,17.4,9.9,30.49,North,10,5.0,5.0,72,0.00,,,0.00,46.0,meteohub,2013-01-17 22:17:00,
2013-01-17 16:22:00,17.4,10.2,30.49,NNE,14,1.0,5.0,73,0.00,,,0.00,40.0,meteohub,2013-01-17 22:22:00,
2013-01-17 16:27:00,17.2,9.9,30.49,North,355,3.0,6.0,72,0.00,,,0.00,33.0,meteohub,2013-01-17 22:27:00,
2013-01-17 16:32:00,17.1,9.7,30.51,WNW,292,2.0,6.0,72,0.00,,,0.00,30.0,meteohub,2013-01-17 22:32:00,
2013-01-17 16:37:00,17.1,9.9,30.49,NNW,342,2.0,4.0,73,0.00,,,0.00,21.0,meteohub,2013-01-17 22:37:00,
2013-01-17 16:42:00,16.9,10.0,30.50,NNW,331,2.0,4.0,74,0.00,,,0.00,16.0,meteohub,2013-01-17 22:42:00,
2013-01-17 16:47:00,16.9,10.0,30.50,WSW,254,0.0,4.0,74,0.00,,,0.00,12.0,meteohub,2013-01-17 22:47:00,
2013-01-17 16:52:00,16.9,9.7,30.51,NNW,347,0.0,4.0,73,0.00,,,0.00,9.0,meteohub,2013-01-17 22:52:00,
2013-01-17 16:57:00,16.7,9.5,30.50,NNE,13,1.0,6.0,73,0.00,,,0.00,7.0,meteohub,2013-01-17 22:57:00,
2013-01-17 17:02:00,16.5,9.3,30.50,NNW,346,0.0,6.0,73,0.00,,,0.00,5.0,meteohub,2013-01-17 23:02:00,
2013-01-17 17:07:00,16.5,9.1,30.50,North,5,0.0,6.0,72,0.00,,,0.00,5.0,meteohub,2013-01-17 23:07:00,
2013-01-17 17:12:00,16.3,9.0,30.50,North,5,0.0,4.0,72,0.00,,,0.00,0.0,meteohub,2013-01-17 23:12:00,
2013-01-17 17:18:00,16.3,9.0,30.50,NW,324,0.0,4.0,72,0.00,,,0.00,0.0,meteohub,2013-01-17 23:18:00,
2013-01-17 17:23:00,16.2,8.4,30.49,WNW,289,2.0,3.0,71,0.00,,,0.00,0.0,meteohub,2013-01-17 23:23:00,
2013-01-17 17:28:00,16.2,8.4,30.49,NW,325,1.0,4.0,71,0.00,,,0.00,0.0,meteohub,2013-01-17 23:28:00,
2013-01-17 17:33:00,16.0,8.6,30.50,NW,321,0.0,4.0,72,0.00,,,0.00,0.0,meteohub,2013-01-17 23:33:00,
2013-01-17 17:38:00,16.0,8.6,30.50,NW,321,0.0,4.0,72,0.00,,,0.00,0.0,meteohub,2013-01-17 23:38:00,
2013-01-17 17:43:00,16.0,8.6,30.50,West,265,1.0,3.0,72,0.00,,,0.00,0.0,meteohub,2013-01-17 23:43:00,
2013-01-17 17:48:00,16.0,8.2,30.49,NNW,331,2.0,2.0,71,0.00,,,0.00,0.0,meteohub,2013-01-17 23:48:00,
2013-01-17 17:53:00,15.8,7.7,30.49,NNW,331,0.0,2.0,70,0.00,,,0.00,0.0,meteohub,2013-01-17 23:53:00,
2013-01-17 17:58:00,16.0,8.6,30.48,NNW,331,0.0,2.0,72,0.00,,,0.00,0.0,meteohub,2013-01-17 23:58:00,
2013-01-17 18:03:00,15.8,8.1,30.48,NNW,331,0.0,2.0,71,0.00,,,0.00,0.0,meteohub,2013-01-18 00:03:00,
2013-01-17 18:08:00,15.8,8.4,30.48,NNW,338,0.0,1.0,72,0.00,,,0.00,0.0,meteohub,2013-01-18 00:08:00,
2013-01-17 18:13:00,16.0,8.6,30.48,NNW,338,0.0,1.0,72,0.00,,,0.00,0.0,meteohub,2013-01-18 00:13:00,
2013-01-17 18:18:00,16.0,8.6,30.48,NNW,338,1.0,2.0,72,0.00,,,0.00,0.0,meteohub,2013-01-18 00:18:00,
2013-01-17 18:23:00,16.0,8.6,30.48,NNW,338,0.0,2.0,72,0.00,,,0.00,0.0,meteohub,2013-01-18 00:23:00,
2013-01-17 18:28:00,15.8,8.4,30.48,NNW,338,0.0,2.0,72,0.00,,,0.00,0.0,meteohub,2013-01-18 00:28:00,
2013-01-17 18:33:00,15.8,8.4,30.48,NNW,338,0.0,2.0,72,0.00,,,0.00,0.0,meteohub,2013-01-18 00:33:00,
2013-01-17 18:38:00,15.8,8.6,30.48,NNW,338,0.0,2.0,73,0.00,,,0.00,0.0,meteohub,2013-01-18 00:38:00,
2013-01-17 18:43:00,15.8,8.4,30.48,NNW,338,0.0,0.0,72,0.00,,,0.00,0.0,meteohub,2013-01-18 00:43:00,
2013-01-17 18:48:00,15.8,8.1,30.48,NNW,338,0.0,0.0,71,0.00,,,0.00,0.0,meteohub,2013-01-18 00:48:00,
2013-01-17 18:53:00,16.0,8.6,30.48,NNW,338,0.0,0.0,72,0.00,,,0.00,0.0,meteohub,2013-01-18 00:53:00,
2013-01-17 18:58:00,16.0,8.8,30.48,NNW,338,0.0,0.0,73,0.00,,,0.00,0.0,meteohub,2013-01-18 00:58:00,
2013-01-17 19:03:00,16.0,8.8,30.48,NNW,338,0.0,0.0,73,0.00,,,0.00,0.0,meteohub,2013-01-18 01:03:00,
2013-01-17 19:08:00,16.0,8.6,30.47,NNW,338,0.0,0.0,72,0.00,,,0.00,0.0,meteohub,2013-01-18 01:08:00,
2013-01-17 19:13:00,16.0,8.6,30.47,NNW,338,0.0,0.0,72,0.00,,,0.00,0.0,meteohub,2013-01-18 01:13:00,
2013-01-17 19:18:00,16.0,8.6,30.47,NNW,338,0.0,0.0,72,0.00,,,0.00,0.0,meteohub,2013-01-18 01:18:00,
2013-01-17 19:23:00,16.0,8.8,30.47,NNW,338,0.0,0.0,73,0.00,,,0.00,0.0,meteohub,2013-01-18 01:23:00,
2013-01-17 19:28:00,16.0,8.6,30.47,NNW,338,0.0,0.0,72,0.00,,,0.00,0.0,meteohub,2013-01-18 01:28:00,
2013-01-17 19:33:00,16.0,8.8,30.46,NNW,338,0.0,0.0,73,0.00,,,0.00,0.0,meteohub,2013-01-18 01:33:00,
2013-01-17 19:38:00,15.8,8.4,30.46,NNW,338,0.0,0.0,72,0.00,,,0.00,0.0,meteohub,2013-01-18 01:38:00,
2013-01-17 19:43:00,16.0,8.6,30.47,NNW,338,0.0,0.0,72,0.00,,,0.00,0.0,meteohub,2013-01-18 01:43:00,
2013-01-17 19:48:00,16.0,9.1,30.46,NNW,338,0.0,0.0,74,0.00,,,0.00,0.0,meteohub,2013-01-18 01:48:00,
2013-01-17 19:53:00,16.0,8.8,30.46,NNW,338,0.0,0.0,73,0.00,,,0.00,0.0,meteohub,2013-01-18 01:53:00,
2013-01-17 19:58:00,16.0,9.1,30.46,NNW,338,0.0,0.0,74,0.00,,,0.00,0.0,meteohub,2013-01-18 01:58:00,
2013-01-17 20:03:00,16.0,8.8,30.45,NNW,338,0.0,0.0,73,0.00,,,0.00,0.0,meteohub,2013-01-18 02:03:00,
2013-01-17 20:08:00,16.0,8.8,30.45,NNW,338,0.0,0.0,73,0.00,,,0.00,0.0,meteohub,2013-01-18 02:08:00,
2013-01-17 20:13:00,16.0,9.1,30.45,NNW,338,0.0,0.0,74,0.00,,,0.00,0.0,meteohub,2013-01-18 02:13:00,
2013-01-17 20:18:00,16.0,9.1,30.45,NNW,338,0.0,0.0,74,0.00,,,0.00,0.0,meteohub,2013-01-18 02:18:00,
2013-01-17 20:23:00,16.0,9.1,30.45,NNW,338,0.0,0.0,74,0.00,,,0.00,0.0,meteohub,2013-01-18 02:23:00,
2013-01-17 20:28:00,16.2,9.3,30.44,NNW,338,0.0,0.0,74,0.00,,,0.00,0.0,meteohub,2013-01-18 02:28:00,
2013-01-17 20:33:00,16.2,9.3,30.44,NNW,338,0.0,0.0,74,0.00,,,0.00,0.0,meteohub,2013-01-18 02:33:00,
2013-01-17 20:38:00,16.2,9.7,30.43,NNW,338,1.0,0.0,75,0.00,,,0.00,0.0,meteohub,2013-01-18 02:38:00,
2013-01-17 20:43:00,16.2,9.7,30.43,NNW,338,0.0,1.0,75,0.00,,,0.00,0.0,meteohub,2013-01-18 02:43:00,
2013-01-17 20:48:00,16.2,9.7,30.43,NNW,338,0.0,1.0,75,0.00,,,0.00,0.0,meteohub,2013-01-18 02:48:00,
2013-01-17 20:53:00,16.2,9.3,30.42,NNW,338,0.0,1.0,74,0.00,,,0.00,0.0,meteohub,2013-01-18 02:53:00,
2013-01-17 20:58:00,16.2,9.7,30.42,SW,228,0.0,2.0,75,0.00,,,0.00,0.0,meteohub,2013-01-18 02:58:00,
2013-01-17 21:03:00,16.2,9.7,30.41,NNE,32,0.0,2.0,75,0.00,,,0.00,0.0,meteohub,2013-01-18 03:03:00,
2013-01-17 21:08:00,16.2,9.7,30.42,NNE,32,0.0,2.0,75,0.00,,,0.00,0.0,meteohub,2013-01-18 03:08:00,
2013-01-17 21:13:00,16.2,9.9,30.42,NNE,32,0.0,2.0,76,0.00,,,0.00,0.0,meteohub,2013-01-18 03:13:00,
2013-01-17 21:18:00,16.2,9.9,30.41,NNE,32,0.0,2.0,76,0.00,,,0.00,0.0,meteohub,2013-01-18 03:18:00,
2013-01-17 21:23:00,16.2,9.9,30.42,NNE,32,0.0,2.0,76,0.00,,,0.00,0.0,meteohub,2013-01-18 03:23:00,
2013-01-17 21:28:00,16.2,9.9,30.41,NNE,32,0.0,2.0,76,0.00,,,0.00,0.0,meteohub,2013-01-18 03:28:00,
2013-01-17 21:33:00,16.2,10.2,30.41,NNE,32,0.0,1.0,77,0.00,,,0.00,0.0,meteohub,2013-01-18 03:33:00,
2013-01-17 21:38:00,16.2,10.2,30.41,NNE,32,0.0,1.0,77,0.00,,,0.00,0.0,meteohub,2013-01-18 03:38:00,
2013-01-17 21:43:00,16.2,10.2,30.40,NNE,32,0.0,1.0,77,0.00,,,0.00,0.0,meteohub,2013-01-18 03:43:00,
2013-01-17 21:48:00,16.2,10.2,30.40,NNE,32,0.0,0.0,77,0.00,,,0.00,0.0,meteohub,2013-01-18 03:48:00,
2013-01-17 21:54:00,16.2,10.2,30.39,NE,45,0.0,0.0,77,0.00,,,0.00,0.0,meteohub,2013-01-18 03:54:00,
2013-01-17 21:59:00,16.2,10.2,30.39,NE,45,0.0,1.0,77,0.00,,,0.00,0.0,meteohub,2013-01-18 03:59:00,
2013-01-17 22:04:00,16.2,10.6,30.39,NE,44,0.0,2.0,78,0.00,,,0.00,0.0,meteohub,2013-01-18 04:04:00,
2013-01-17 22:09:00,16.2,10.8,30.38,NE,44,0.0,2.0,79,0.00,,,0.00,0.0,meteohub,2013-01-18 04:09:00,
2013-01-17 22:14:00,16.2,10.8,30.37,WNW,296,0.0,1.0,79,0.00,,,0.00,0.0,meteohub,2013-01-18 04:14:00,
2013-01-17 22:19:00,16.2,11.1,30.37,ENE,61,0.0,3.0,80,0.00,,,0.00,0.0,meteohub,2013-01-18 04:19:00,
2013-01-17 22:24:00,16.3,11.3,30.36,ESE,119,0.0,3.0,80,0.00,,,0.00,0.0,meteohub,2013-01-18 04:24:00,
2013-01-17 22:29:00,16.3,11.3,30.36,NE,36,0.0,3.0,80,0.00,,,0.00,0.0,meteohub,2013-01-18 04:29:00,
2013-01-17 22:34:00,16.3,11.3,30.35,WSW,238,0.0,3.0,80,0.00,,,0.00,0.0,meteohub,2013-01-18 04:34:00,
2013-01-17 22:39:00,16.3,11.5,30.35,SSE,149,0.0,3.0,81,0.00,,,0.00,0.0,meteohub,2013-01-18 04:39:00,
2013-01-17 22:44:00,16.3,11.3,30.35,NE,46,0.0,3.0,80,0.00,,,0.00,0.0,meteohub,2013-01-18 04:44:00,
2013-01-17 22:49:00,16.5,11.5,30.34,NE,46,0.0,2.0,80,0.00,,,0.00,0.0,meteohub,2013-01-18 04:49:00,
2013-01-17 22:54:00,16.5,11.5,30.35,NNE,14,0.0,2.0,80,0.00,,,0.00,0.0,meteohub,2013-01-18 04:54:00,
2013-01-17 22:59:00,16.5,11.1,30.35,NE,49,0.0,2.0,79,0.00,,,0.00,0.0,meteohub,2013-01-18 04:59:00,
2013-01-17 23:00:00,16.5,11.1,30.35,NE,49,0.0,2.0,79,0.00,,,0.00,0.0,meteohub,2013-01-18 05:00:00,
2013-01-17 23:01:00,16.5,11.1,30.34,NE,49,0.0,2.0,79,0.00,,,0.00,0.0,meteohub,2013-01-18 05:01:00,
2013-01-17 23:06:00,16.5,11.1,30.34,SSE,159,1.0,2.0,79,0.00,,,0.00,0.0,meteohub,2013-01-18 05:06:00,
2013-01-17 23:11:00,16.7,11.3,30.33,WSW,237,1.0,2.0,79,0.00,,,0.00,0.0,meteohub,2013-01-18 05:11:00,
2013-01-17 23:16:00,16.7,11.3,30.32,WSW,239,1.0,4.0,79,0.00,,,0.00,0.0,meteohub,2013-01-18 05:16:00,
2013-01-17 23:21:00,16.9,11.5,30.32,NW,307,0.0,4.0,79,0.00,,,0.00,0.0,meteohub,2013-01-18 05:21:00,
2013-01-17 23:26:00,16.9,11.3,30.32,ESE,119,2.0,4.0,78,0.00,,,0.00,0.0,meteohub,2013-01-18 05:26:00,
2013-01-17 23:31:00,16.9,11.3,30.31,South,172,0.0,4.0,78,0.00,,,0.00,0.0,meteohub,2013-01-18 05:31:00,
2013-01-17 23:36:00,16.9,11.3,30.30,South,187,0.0,4.0,78,0.00,,,0.00,0.0,meteohub,2013-01-18 05:36:00,
2013-01-17 23:41:00,17.1,11.7,30.30,SE,136,0.0,3.0,79,0.00,,,0.00,0.0,meteohub,2013-01-18 05:41:00,
2013-01-17 23:46:00,17.1,11.7,30.30,ENE,70,0.0,3.0,79,0.00,,,0.00,0.0,meteohub,2013-01-18 05:46:00,
2013-01-17 23:51:00,17.1,11.7,30.30,NW,313,0.0,4.0,79,0.00,,,0.00,0.0,meteohub,2013-01-18 05:51:00,
2013-01-17 23:56:00,17.2,11.8,30.29,West,277,1.0,4.0,79,0.00,,,0.00,0.0,meteohub,2013-01-18 05:56:00,